Time;durP1;ratioP1;P1;durP2;ratioP2;P2;SDS_P1;SDS_P2;PMS_P1;PMS_P2;Temp;Humidity;BMP_temperature;BMP_pressure;BME280_temperature;BME280_humidity;BME280_pressure;Samples;Min_cycle;Max_cycle;Signal;HPM_P1;HPM_P2
2024/02/12 05:02:54;;;;;;;10.00;6.75;;;6.70;99.90;;;;;;4928908;29;20250;-70
2024/02/12 05:05:21;;;;;;;8.63;5.88;;;6.70;99.90;;;;;;4921505;29;20213;-69
2024/02/12 05:07:47;;;;;;;8.57;5.95;;;6.70;99.90;;;;;;4927139;29;20230;-69
2024/02/12 05:10:14;;;;;;;10.98;6.72;;;6.80;99.90;;;;;;4929976;29;20228;-69
2024/02/12 05:12:41;;;;;;;8.55;7.00;;;6.70;99.90;;;;;;4924856;29;20210;-70
2024/02/12 05:15:09;;;;;;;9.43;5.45;;;6.70;99.90;;;;;;4932884;29;20214;-69
2024/02/12 05:17:52;;;;;;;12.82;5.40;;;6.80;99.90;;;;;;4926334;29;20272;-69
2024/02/12 05:23:08;;;;;;;6.80;5.25;;;6.70;99.90;;;;;;4932259;29;20680;-69
2024/02/12 05:25:35;;;;;;;12.10;5.88;;;6.70;99.90;;;;;;4932052;29;20208;-69
2024/02/12 05:28:02;;;;;;;7.95;4.93;;;6.70;99.90;;;;;;4927450;29;20236;-69
2024/02/12 05:30:29;;;;;;;6.70;4.05;;;6.70;99.90;;;;;;4932213;29;20230;-71
2024/02/12 05:32:55;;;;;;;7.10;4.40;;;6.70;99.90;;;;;;4930683;29;20225;-69
2024/02/12 05:35:23;;;;;;;12.95;7.55;;;6.70;99.90;;;;;;4933103;29;20216;-69
2024/02/12 05:37:50;;;;;;;18.83;5.72;;;6.70;99.90;;;;;;4929089;29;20208;-69
2024/02/12 05:40:18;;;;;;;10.13;5.63;;;6.70;99.90;;;;;;4931691;29;20264;-70
2024/02/12 05:42:44;;;;;;;12.02;5.22;;;6.70;99.90;;;;;;4924535;29;20210;-70
2024/02/12 05:45:11;;;;;;;9.18;5.05;;;6.80;99.90;;;;;;4930303;29;20241;-70
2024/02/12 05:47:40;;;;;;;10.75;5.38;;;6.70;99.90;;;;;;4930918;29;20230;-71
2024/02/12 05:50:09;;;;;;;11.32;5.80;;;6.70;99.90;;;;;;4930914;29;20213;-71
2024/02/12 05:52:38;;;;;;;8.02;4.22;;;6.70;99.90;;;;;;4929735;29;20208;-71
2024/02/12 05:55:05;;;;;;;10.18;5.38;;;6.70;99.90;;;;;;4923924;29;20241;-70
2024/02/12 05:57:32;;;;;;;11.68;6.32;;;6.70;99.90;;;;;;4925415;29;20550;-70
2024/02/12 05:59:59;;;;;;;14.60;7.35;;;6.80;99.90;;;;;;4929614;29;20573;-71
2024/02/12 06:02:26;;;;;;;12.88;7.82;;;6.70;99.90;;;;;;4932375;29;20240;-71
2024/02/12 06:04:53;;;;;;;10.95;5.85;;;6.70;99.90;;;;;;4930410;29;20576;-70
2024/02/12 06:07:19;;;;;;;8.45;5.75;;;6.70;99.90;;;;;;4927410;29;20252;-71
2024/02/12 06:09:48;;;;;;;10.23;5.40;;;6.70;99.90;;;;;;4927628;29;20669;-70
2024/02/12 06:12:14;;;;;;;14.35;8.00;;;6.70;99.90;;;;;;4926101;29;20240;-71
2024/02/12 06:14:41;;;;;;;15.20;6.38;;;6.70;99.90;;;;;;4927770;29;20666;-71
2024/02/12 06:17:10;;;;;;;12.90;7.30;;;6.70;99.90;;;;;;4923927;29;20216;-71
2024/02/12 06:19:37;;;;;;;13.52;6.72;;;6.70;99.90;;;;;;4926054;29;20300;-70
2024/02/12 06:22:06;;;;;;;13.80;5.85;;;6.70;99.90;;;;;;4931815;29;20588;-70
2024/02/12 06:24:32;;;;;;;11.90;7.55;;;6.70;99.90;;;;;;4921781;29;20222;-70
2024/02/12 06:27:00;;;;;;;12.23;6.05;;;6.60;99.90;;;;;;4926863;29;20218;-71
2024/02/12 06:29:27;;;;;;;19.27;7.45;;;6.60;99.90;;;;;;4926578;29;20216;-70
2024/02/12 06:31:54;;;;;;;13.10;7.03;;;6.60;99.90;;;;;;4929067;29;20237;-71
2024/02/12 06:34:21;;;;;;;13.13;5.82;;;6.60;99.90;;;;;;4931948;29;20217;-70
2024/02/12 06:36:47;;;;;;;12.73;6.07;;;6.50;99.90;;;;;;4927943;29;20220;-71
2024/02/12 06:39:14;;;;;;;15.50;6.97;;;6.50;99.90;;;;;;4926131;29;20237;-72
2024/02/12 06:41:44;;;;;;;18.75;7.28;;;6.50;99.90;;;;;;4931348;29;20236;-70
2024/02/12 06:44:15;;;;;;;18.10;9.07;;;6.50;99.90;;;;;;4924921;29;20699;-69
2024/02/12 06:46:44;;;;;;;16.55;7.60;;;6.50;99.90;;;;;;4925162;29;20216;-70
2024/02/12 06:49:11;;;;;;;17.92;7.45;;;6.50;99.90;;;;;;4921056;29;20230;-70
2024/02/12 06:51:40;;;;;;;12.63;6.75;;;6.50;99.90;;;;;;4927735;29;20259;-70
2024/02/12 06:54:07;;;;;;;17.65;7.38;;;6.40;99.90;;;;;;4929635;29;20244;-71
2024/02/12 06:56:34;;;;;;;24.15;10.20;;;6.40;99.90;;;;;;4926148;29;20205;-70
2024/02/12 06:59:01;;;;;;;19.45;8.65;;;6.40;99.90;;;;;;4921046;29;20209;-70
2024/02/12 07:01:29;;;;;;;24.63;8.27;;;6.40;99.90;;;;;;4916204;29;20233;-69
2024/02/12 07:03:57;;;;;;;26.83;10.57;;;6.40;99.90;;;;;;4927918;29;20276;-70
2024/02/12 07:06:24;;;;;;;15.93;8.05;;;6.40;99.90;;;;;;4924866;29;20294;-70
2024/02/12 07:08:50;;;;;;;15.43;9.10;;;6.40;99.90;;;;;;4922915;29;20225;-68
2024/02/12 07:11:17;;;;;;;13.20;7.32;;;6.40;99.90;;;;;;4929675;29;20254;-69
2024/02/12 07:13:44;;;;;;;15.57;8.50;;;6.40;99.90;;;;;;4926767;29;20584;-70
2024/02/12 07:16:17;;;;;;;19.40;9.40;;;6.40;99.90;;;;;;4934197;29;20228;-70
2024/02/12 07:18:45;;;;;;;20.52;10.02;;;6.40;99.90;;;;;;4933202;29;20275;-70
2024/02/12 07:21:12;;;;;;;24.38;9.00;;;6.40;99.90;;;;;;4930627;29;20305;-70
2024/02/12 07:23:39;;;;;;;34.47;9.73;;;6.50;99.90;;;;;;4931229;29;20214;-71
2024/02/12 07:26:06;;;;;;;23.02;11.20;;;6.50;99.90;;;;;;4934940;29;20217;-70
2024/02/12 07:28:32;;;;;;;16.00;9.02;;;6.50;99.90;;;;;;4929444;29;20238;-71
2024/02/12 07:30:59;;;;;;;25.30;10.95;;;6.50;99.90;;;;;;4928284;29;20605;-71
2024/02/12 07:33:26;;;;;;;21.65;7.88;;;6.50;99.90;;;;;;4935193;29;20209;-69
2024/02/12 07:35:55;;;;;;;17.75;10.20;;;6.60;99.90;;;;;;4930724;29;20362;-69
2024/02/12 07:38:22;;;;;;;29.27;10.15;;;6.60;99.90;;;;;;4934862;29;20217;-69
2024/02/12 07:40:49;;;;;;;21.70;8.07;;;6.70;99.90;;;;;;4935593;29;20243;-69
2024/02/12 07:43:16;;;;;;;18.00;7.47;;;6.70;99.90;;;;;;4928625;29;20221;-69
2024/02/12 07:45:43;;;;;;;22.85;8.00;;;6.70;99.90;;;;;;4928806;29;20221;-68
2024/02/12 07:48:10;;;;;;;30.42;10.65;;;6.70;99.90;;;;;;4923440;29;20247;-69
2024/02/12 07:50:37;;;;;;;23.67;10.55;;;6.70;99.90;;;;;;4928525;29;20240;-69
2024/02/12 07:53:05;;;;;;;23.70;9.20;;;6.70;99.90;;;;;;4928355;29;20642;-69
2024/02/12 07:55:32;;;;;;;23.73;11.02;;;6.70;99.90;;;;;;4928934;29;20607;-69
2024/02/12 07:57:59;;;;;;;24.58;10.75;;;6.70;99.90;;;;;;4928012;29;20309;-69
2024/02/12 08:00:25;;;;;;;16.88;8.90;;;6.70;99.90;;;;;;4918697;29;20219;-70
2024/02/12 08:02:53;;;;;;;27.80;10.38;;;6.70;99.90;;;;;;4926235;29;20300;-69
2024/02/12 08:05:21;;;;;;;17.63;10.18;;;6.80;99.90;;;;;;4927137;29;20732;-70
2024/02/12 08:07:48;;;;;;;15.63;8.95;;;6.80;99.90;;;;;;4923491;29;20291;-70
2024/02/12 08:10:16;;;;;;;22.73;9.05;;;6.80;99.90;;;;;;4922061;29;20220;-70
2024/02/12 08:12:43;;;;;;;19.35;8.10;;;6.80;99.90;;;;;;4932733;29;20217;-69
2024/02/12 08:15:12;;;;;;;25.30;9.43;;;6.80;99.90;;;;;;4925497;29;20577;-70
2024/02/12 08:17:39;;;;;;;21.58;8.85;;;6.90;99.90;;;;;;4924372;29;20251;-69
2024/02/12 08:20:08;;;;;;;21.27;8.13;;;6.90;99.90;;;;;;4931965;29;20222;-69
2024/02/12 08:22:34;;;;;;;20.17;10.20;;;6.80;99.90;;;;;;4923740;29;20245;-70
2024/02/12 08:25:02;;;;;;;23.98;8.85;;;6.90;99.90;;;;;;4925671;29;20229;-69
2024/02/12 08:27:30;;;;;;;17.83;7.72;;;6.90;99.90;;;;;;4926403;29;20216;-69
2024/02/12 08:29:58;;;;;;;21.35;10.15;;;6.90;99.90;;;;;;4922038;29;20214;-69
2024/02/12 08:32:26;;;;;;;15.57;9.48;;;6.90;99.90;;;;;;4929317;29;20229;-69
2024/02/12 08:34:53;;;;;;;14.23;7.18;;;6.90;99.90;;;;;;4929803;29;20213;-70
2024/02/12 08:37:22;;;;;;;20.70;9.25;;;6.90;99.90;;;;;;4930305;29;20210;-69
2024/02/12 08:39:48;;;;;;;19.08;9.35;;;7.00;99.90;;;;;;4929120;29;20217;-69
2024/02/12 08:42:15;;;;;;;30.95;17.33;;;7.10;99.90;;;;;;4935470;29;20240;-70
2024/02/12 08:44:44;;;;;;;16.48;10.10;;;7.10;99.90;;;;;;4924755;29;20334;-70
2024/02/12 08:47:11;;;;;;;16.92;8.13;;;7.20;99.90;;;;;;4917891;29;20230;-68
2024/02/12 08:49:38;;;;;;;18.30;8.43;;;7.10;99.90;;;;;;4920087;29;20222;-70
2024/02/12 08:52:04;;;;;;;20.73;9.52;;;7.20;99.90;;;;;;4921996;29;20229;-70
2024/02/12 08:54:31;;;;;;;15.80;7.15;;;7.20;99.90;;;;;;4923830;29;20214;-70
2024/02/12 08:56:58;;;;;;;19.00;8.77;;;7.30;99.90;;;;;;4927668;29;20209;-70
2024/02/12 08:59:25;;;;;;;23.27;8.65;;;7.40;99.90;;;;;;4925007;29;20257;-69
2024/02/12 09:01:54;;;;;;;18.38;8.95;;;7.40;99.90;;;;;;4923398;29;20237;-69
2024/02/12 09:04:20;;;;;;;19.35;8.45;;;7.50;99.90;;;;;;4930165;29;20273;-70
2024/02/12 09:06:48;;;;;;;25.55;10.50;;;7.50;99.90;;;;;;4924540;29;20202;-69
2024/02/12 09:09:15;;;;;;;18.00;8.38;;;7.60;99.90;;;;;;4925306;29;20727;-69
2024/02/12 09:11:42;;;;;;;15.82;7.68;;;7.60;99.90;;;;;;4923175;29;20718;-69
2024/02/12 09:14:10;;;;;;;15.13;7.38;;;7.70;99.90;;;;;;4931238;29;20225;-69
2024/02/12 09:16:38;;;;;;;17.60;9.00;;;7.70;99.90;;;;;;4922439;29;20211;-69
2024/02/12 09:19:07;;;;;;;14.82;7.65;;;7.80;99.90;;;;;;4921896;29;20289;-70
2024/02/12 09:21:34;;;;;;;13.10;7.70;;;7.90;99.90;;;;;;4922611;29;20225;-70
2024/02/12 09:24:01;;;;;;;12.35;7.78;;;7.90;99.90;;;;;;4922713;29;20221;-69
2024/02/12 09:26:28;;;;;;;14.40;8.00;;;8.00;99.90;;;;;;4923001;29;20273;-68
2024/02/12 09:28:56;;;;;;;14.85;8.00;;;8.10;99.90;;;;;;4918313;29;20280;-70
2024/02/12 09:31:24;;;;;;;19.08;10.07;;;8.10;99.90;;;;;;4927157;29;20292;-69
2024/02/12 09:33:51;;;;;;;12.50;5.78;;;8.10;99.90;;;;;;4930402;29;20202;-68
2024/02/12 09:36:19;;;;;;;22.42;9.90;;;8.20;99.90;;;;;;4929512;29;20297;-69
2024/02/12 09:38:47;;;;;;;10.82;6.78;;;8.20;99.90;;;;;;4921574;29;20228;-69
2024/02/12 09:41:16;;;;;;;12.88;6.95;;;8.20;99.90;;;;;;4923042;29;20226;-69
2024/02/12 09:43:44;;;;;;;11.60;6.43;;;8.20;99.90;;;;;;4924137;29;20221;-70
2024/02/12 09:46:14;;;;;;;16.38;7.90;;;8.20;99.90;;;;;;4923261;29;20206;-70
2024/02/12 09:48:42;;;;;;;13.15;6.50;;;8.30;99.90;;;;;;4923762;29;20242;-69
2024/02/12 09:51:12;;;;;;;11.80;5.95;;;8.30;99.90;;;;;;4920822;29;20882;-69
2024/02/12 09:53:43;;;;;;;11.65;6.75;;;8.30;99.90;;;;;;4926643;29;20301;-69
2024/02/12 09:56:12;;;;;;;9.65;7.28;;;8.40;99.90;;;;;;4924841;29;20259;-69
2024/02/12 09:58:38;;;;;;;18.88;6.25;;;8.30;99.90;;;;;;4924233;29;20198;-68
2024/02/12 10:01:06;;;;;;;10.57;6.70;;;8.40;99.90;;;;;;4924339;29;20234;-69
2024/02/12 10:03:33;;;;;;;10.80;6.00;;;8.30;99.90;;;;;;4918754;29;20255;-69
2024/02/12 10:06:00;;;;;;;18.15;9.65;;;8.40;99.90;;;;;;4917637;29;20382;-69
2024/02/12 10:08:28;;;;;;;18.20;8.65;;;8.40;99.90;;;;;;4922535;29;20316;-70
2024/02/12 10:10:56;;;;;;;17.83;7.53;;;8.40;99.90;;;;;;4922489;29;20226;-69
2024/02/12 10:13:23;;;;;;;12.10;7.15;;;8.50;99.90;;;;;;4925105;29;20247;-69
2024/02/12 10:15:51;;;;;;;14.50;6.70;;;8.50;99.90;;;;;;4918156;29;20202;-69
2024/02/12 10:18:20;;;;;;;22.70;7.20;;;8.50;99.90;;;;;;4930410;29;20646;-70
2024/02/12 10:20:48;;;;;;;8.95;6.50;;;8.50;99.90;;;;;;4920580;29;20297;-69
2024/02/12 10:23:16;;;;;;;13.73;6.05;;;8.50;99.90;;;;;;4929367;29;20297;-69
2024/02/12 10:25:45;;;;;;;10.20;7.63;;;8.60;99.90;;;;;;4919968;29;20210;-69
2024/02/12 10:28:13;;;;;;;18.40;7.18;;;8.70;99.90;;;;;;4924897;29;20218;-68
2024/02/12 10:30:40;;;;;;;9.63;6.82;;;8.70;99.90;;;;;;4919221;29;20226;-69
2024/02/12 10:33:09;;;;;;;16.33;8.90;;;8.70;99.90;;;;;;4923647;29;20202;-68
2024/02/12 10:35:38;;;;;;;17.02;7.55;;;8.80;99.90;;;;;;4922814;29;20209;-70
2024/02/12 10:38:06;;;;;;;13.15;7.93;;;8.80;99.90;;;;;;4924512;29;20258;-69
2024/02/12 10:40:40;;;;;;;14.32;8.30;;;8.90;99.90;;;;;;4925248;29;20686;-69
2024/02/12 10:43:10;;;;;;;15.27;7.05;;;8.90;99.90;;;;;;4928735;29;20217;-69
2024/02/12 10:45:38;;;;;;;16.10;8.63;;;8.90;99.90;;;;;;4925383;29;20681;-69
2024/02/12 10:48:08;;;;;;;14.25;6.68;;;8.80;99.90;;;;;;4933203;29;20207;-70
2024/02/12 10:50:37;;;;;;;15.93;7.72;;;8.80;99.90;;;;;;4923429;29;20227;-70
2024/02/12 10:53:06;;;;;;;11.27;6.93;;;8.80;99.90;;;;;;4926566;29;20230;-69
2024/02/12 10:55:34;;;;;;;17.40;7.80;;;8.70;99.90;;;;;;4916910;29;20298;-70
2024/02/12 10:58:00;;;;;;;11.48;5.90;;;8.70;99.90;;;;;;4922632;29;20217;-70
2024/02/12 11:00:27;;;;;;;17.45;7.93;;;8.60;99.90;;;;;;4922933;29;20573;-70
2024/02/12 11:02:56;;;;;;;9.05;5.95;;;8.60;99.90;;;;;;4921958;29;20210;-70
2024/02/12 11:05:22;;;;;;;8.70;5.38;;;8.60;99.90;;;;;;4924608;29;20206;-69
2024/02/12 11:08:00;;;;;;;9.73;6.68;;;8.50;99.90;;;;;;4931726;29;20226;-71
2024/02/12 11:10:33;;;;;;;15.13;7.20;;;8.40;99.90;;;;;;4925640;29;20230;-69
2024/02/12 11:13:05;;;;;;;12.50;6.70;;;8.40;99.90;;;;;;4919045;29;20207;-69
2024/02/12 11:15:32;;;;;;;7.25;6.05;;;8.50;99.90;;;;;;4934919;29;20220;-69
2024/02/12 11:18:00;;;;;;;7.35;5.75;;;8.50;99.90;;;;;;4926953;29;20282;-68
2024/02/12 11:20:26;;;;;;;9.85;7.32;;;8.50;99.90;;;;;;4926115;29;20683;-69
2024/02/12 11:22:55;;;;;;;13.65;6.55;;;8.50;99.90;;;;;;4919103;29;20772;-70
2024/02/12 11:25:21;;;;;;;10.82;6.00;;;8.50;99.90;;;;;;4924035;29;20254;-71
2024/02/12 11:27:52;;;;;;;8.73;5.80;;;8.50;99.90;;;;;;4919622;29;20210;-68
2024/02/12 11:30:20;;;;;;;7.57;4.60;;;8.40;99.90;;;;;;4914841;29;20235;-69
2024/02/12 11:32:48;;;;;;;7.70;6.75;;;8.40;99.90;;;;;;4928922;29;20618;-69
2024/02/12 11:35:18;;;;;;;12.98;7.30;;;8.50;99.90;;;;;;4920159;29;20229;-69
2024/02/12 11:37:47;;;;;;;11.05;8.05;;;8.50;99.90;;;;;;4927022;29;20206;-69
2024/02/12 11:40:19;;;;;;;7.68;5.78;;;8.50;99.90;;;;;;4924347;29;20269;-69
2024/02/12 11:42:49;;;;;;;5.18;4.38;;;8.50;99.90;;;;;;4933640;28;20302;-70
2024/02/12 11:45:16;;;;;;;8.63;5.20;;;8.50;99.90;;;;;;4922235;29;20202;-70
2024/02/12 11:47:43;;;;;;;7.95;5.65;;;8.50;99.90;;;;;;4932342;29;20206;-71
2024/02/12 11:50:20;;;;;;;13.63;4.82;;;8.50;99.90;;;;;;4931305;29;20234;-71
2024/02/12 11:52:47;;;;;;;8.15;4.50;;;8.60;99.90;;;;;;4922431;29;20214;-70
2024/02/12 11:55:14;;;;;;;6.18;3.67;;;8.50;99.90;;;;;;4933159;29;20225;-70
2024/02/12 11:57:41;;;;;;;11.85;6.00;;;8.60;99.90;;;;;;4930588;29;20575;-70
2024/02/12 12:00:16;;;;;;;6.05;4.55;;;8.60;99.90;;;;;;4930046;29;20537;-72
2024/02/12 12:02:46;;;;;;;6.53;4.85;;;8.50;99.90;;;;;;4932138;29;20213;-69
2024/02/12 12:05:14;;;;;;;7.93;5.15;;;8.50;99.90;;;;;;4926682;29;20297;-70
2024/02/12 12:07:42;;;;;;;6.38;4.93;;;8.50;99.90;;;;;;4925511;29;20202;-70
2024/02/12 12:10:11;;;;;;;7.90;6.30;;;8.50;99.90;;;;;;4923710;29;20225;-69
2024/02/12 12:12:38;;;;;;;13.25;6.20;;;8.40;99.90;;;;;;4931167;29;20213;-70
2024/02/12 12:15:07;;;;;;;11.75;6.18;;;8.40;99.90;;;;;;4926801;29;20206;-69
2024/02/12 12:17:33;;;;;;;13.48;6.25;;;8.40;99.90;;;;;;4928988;29;20210;-69
2024/02/12 12:20:01;;;;;;;16.90;6.45;;;8.40;99.90;;;;;;4928463;29;20270;-71
2024/02/12 12:22:28;;;;;;;12.68;6.88;;;8.50;99.90;;;;;;4928786;29;20226;-71
2024/02/12 12:24:57;;;;;;;16.67;7.78;;;8.60;99.90;;;;;;4931935;29;20257;-70
2024/02/12 12:27:24;;;;;;;11.43;8.07;;;8.60;99.90;;;;;;4927596;29;20296;-71
2024/02/12 12:29:52;;;;;;;19.95;9.23;;;8.60;99.90;;;;;;4927055;29;20222;-70
2024/02/12 12:32:19;;;;;;;14.27;8.20;;;8.60;99.90;;;;;;4934945;29;20689;-71
2024/02/12 12:34:46;;;;;;;13.95;8.50;;;8.60;99.90;;;;;;4938979;29;20202;-71
2024/02/12 12:37:14;;;;;;;14.98;9.45;;;8.60;99.90;;;;;;4928547;29;20216;-71
2024/02/12 12:39:41;;;;;;;20.23;9.57;;;8.70;99.90;;;;;;4927631;29;20203;-72
2024/02/12 12:42:10;;;;;;;14.75;7.80;;;8.70;99.90;;;;;;4932223;29;20358;-71
2024/02/12 12:44:38;;;;;;;17.60;7.82;;;8.70;99.90;;;;;;4929451;29;20206;-71
2024/02/12 12:47:05;;;;;;;26.63;10.52;;;8.80;99.90;;;;;;4932384;29;20206;-71
2024/02/12 12:49:32;;;;;;;20.45;10.77;;;8.80;99.90;;;;;;4932512;29;20278;-71
2024/02/12 12:51:59;;;;;;;28.65;13.35;;;8.70;99.90;;;;;;4932994;29;20234;-71
2024/02/12 12:54:26;;;;;;;23.42;12.35;;;8.80;99.90;;;;;;4930364;29;20230;-72
2024/02/12 12:56:53;;;;;;;20.42;9.93;;;8.80;99.90;;;;;;4923468;29;20210;-72
2024/02/12 12:59:21;;;;;;;19.42;11.65;;;8.80;99.90;;;;;;4927409;29;20749;-69
2024/02/12 13:01:48;;;;;;;20.73;12.38;;;8.80;99.90;;;;;;4923091;29;20234;-69
2024/02/12 13:04:14;;;;;;;26.45;11.98;;;8.80;99.90;;;;;;4930271;29;20216;-69
2024/02/12 13:06:42;;;;;;;25.70;10.13;;;8.80;99.90;;;;;;4926666;29;20216;-70
2024/02/12 13:09:10;;;;;;;17.48;9.60;;;8.80;99.90;;;;;;4923008;29;20203;-70
2024/02/12 13:11:37;;;;;;;21.55;10.73;;;8.80;99.90;;;;;;4928262;29;20230;-70
2024/02/12 13:14:06;;;;;;;20.88;9.70;;;8.90;99.90;;;;;;4924889;29;20289;-69
2024/02/12 13:16:35;;;;;;;28.77;11.07;;;9.00;99.90;;;;;;4929637;29;20583;-71
2024/02/12 13:19:01;;;;;;;21.50;11.80;;;9.10;99.90;;;;;;4929555;29;20213;-71
2024/02/12 13:21:29;;;;;;;18.90;9.02;;;9.20;99.90;;;;;;4922973;29;20237;-70
2024/02/12 13:23:57;;;;;;;17.27;9.00;;;9.20;99.90;;;;;;4926616;29;20261;-69
2024/02/12 13:26:24;;;;;;;21.85;11.00;;;9.20;99.90;;;;;;4927240;29;20209;-71
2024/02/12 13:28:52;;;;;;;19.15;9.45;;;9.30;99.90;;;;;;4933218;29;20306;-71
2024/02/12 13:31:24;;;;;;;19.00;9.35;;;9.30;99.90;;;;;;4932398;29;20235;-71
2024/02/12 13:33:53;;;;;;;15.38;9.20;;;9.40;99.90;;;;;;4929621;29;20308;-71
2024/02/12 13:36:20;;;;;;;16.08;9.30;;;9.30;99.90;;;;;;4931375;29;20641;-71
2024/02/12 13:38:47;;;;;;;15.88;9.32;;;9.30;99.90;;;;;;4925464;29;20217;-70
2024/02/12 13:41:14;;;;;;;12.15;8.77;;;9.30;99.90;;;;;;4927023;29;20261;-69
2024/02/12 13:43:41;;;;;;;13.32;8.05;;;9.20;99.90;;;;;;4942240;29;20215;-69
2024/02/12 13:46:08;;;;;;;12.95;7.22;;;9.20;99.90;;;;;;4926398;29;20214;-69
2024/02/12 13:48:34;;;;;;;14.85;9.02;;;9.20;99.90;;;;;;4931425;29;20214;-70
2024/02/12 13:51:03;;;;;;;10.45;6.93;;;9.20;99.90;;;;;;4926481;29;20241;-69
2024/02/12 13:53:29;;;;;;;14.70;7.55;;;9.10;99.90;;;;;;4929583;29;20210;-71
2024/02/12 13:55:56;;;;;;;14.63;8.05;;;9.10;99.90;;;;;;4927819;29;20214;-70
2024/02/12 13:58:23;;;;;;;13.75;8.10;;;9.00;99.90;;;;;;4929731;29;20274;-70
2024/02/12 14:00:51;;;;;;;20.83;11.18;;;8.90;99.90;;;;;;4932204;29;20234;-70
2024/02/12 14:03:17;;;;;;;25.20;13.25;;;8.90;99.90;;;;;;4927871;29;20218;-70
2024/02/12 14:05:44;;;;;;;18.10;11.05;;;8.90;99.90;;;;;;4927211;29;20209;-67
2024/02/12 14:08:12;;;;;;;15.48;8.30;;;8.90;99.90;;;;;;4932870;29;20214;-70
2024/02/12 14:10:40;;;;;;;12.63;8.10;;;8.90;99.90;;;;;;4923037;29;20313;-68
2024/02/12 14:13:08;;;;;;;14.35;9.15;;;8.90;99.90;;;;;;4926499;29;20206;-69
2024/02/12 14:15:36;;;;;;;14.27;7.60;;;8.90;99.90;;;;;;4928824;29;20285;-69
2024/02/12 14:18:04;;;;;;;19.27;9.98;;;9.00;99.90;;;;;;4932579;29;20278;-70
2024/02/12 14:20:31;;;;;;;26.45;9.98;;;9.10;99.90;;;;;;4928226;29;20203;-71
2024/02/12 14:22:59;;;;;;;21.60;12.55;;;9.20;99.90;;;;;;4931485;29;20206;-70
2024/02/12 14:25:30;;;;;;;11.73;7.70;;;9.30;99.90;;;;;;4924524;29;20214;-70
2024/02/12 14:27:58;;;;;;;16.50;9.98;;;9.30;99.90;;;;;;4930570;29;20761;-70
2024/02/12 14:30:26;;;;;;;10.48;7.72;;;9.30;99.90;;;;;;4925383;29;20687;-70
2024/02/12 14:32:54;;;;;;;17.25;7.28;;;9.20;99.90;;;;;;4926893;29;20297;-71
2024/02/12 14:35:23;;;;;;;9.35;5.38;;;9.10;99.90;;;;;;4930181;29;20217;-70
2024/02/12 14:37:50;;;;;;;8.98;6.32;;;9.10;99.90;;;;;;4926896;29;20218;-70
2024/02/12 14:40:17;;;;;;;9.45;5.20;;;9.00;99.90;;;;;;4926670;29;20293;-71
2024/02/12 14:42:45;;;;;;;12.52;7.95;;;8.90;99.90;;;;;;4927503;29;20202;-70
2024/02/12 14:45:12;;;;;;;8.75;5.53;;;8.90;99.90;;;;;;4933068;29;20306;-68
2024/02/12 14:47:40;;;;;;;10.88;6.55;;;8.80;99.90;;;;;;4927067;29;20211;-70
2024/02/12 14:50:08;;;;;;;13.25;7.32;;;8.80;99.90;;;;;;4926236;29;20229;-71
2024/02/12 14:52:36;;;;;;;6.95;5.13;;;8.80;99.90;;;;;;4925867;29;20322;-70
2024/02/12 14:55:04;;;;;;;10.00;6.20;;;8.80;99.90;;;;;;4933479;29;20627;-72
2024/02/12 14:57:30;;;;;;;7.43;5.25;;;8.70;99.90;;;;;;4930643;29;20215;-70
2024/02/12 14:59:58;;;;;;;6.07;4.75;;;8.70;99.90;;;;;;4941128;29;20203;-70
2024/02/12 15:02:25;;;;;;;9.43;5.53;;;8.70;99.90;;;;;;4938472;29;20242;-70
2024/02/12 15:04:54;;;;;;;6.30;4.15;;;8.60;99.90;;;;;;4934566;29;20203;-68
2024/02/12 15:07:23;;;;;;;6.07;4.78;;;8.60;99.90;;;;;;4933007;29;20207;-71
2024/02/12 15:09:50;;;;;;;15.15;5.65;;;8.60;99.90;;;;;;4934831;29;20230;-71
2024/02/12 15:12:21;;;;;;;6.25;5.32;;;8.50;99.90;;;;;;4936012;29;20239;-71
2024/02/12 15:14:47;;;;;;;6.65;4.65;;;8.50;99.90;;;;;;4941963;29;20221;-71
2024/02/12 15:17:16;;;;;;;11.20;5.03;;;8.50;99.90;;;;;;4940754;29;20222;-69
2024/02/12 15:19:46;;;;;;;4.95;4.03;;;8.50;99.90;;;;;;4943046;29;20207;-69
2024/02/12 15:22:13;;;;;;;7.25;5.85;;;8.50;99.90;;;;;;4935141;29;20237;-67
2024/02/12 15:24:40;;;;;;;6.47;5.05;;;8.50;99.90;;;;;;4923710;29;20237;-72
2024/02/12 15:27:08;;;;;;;6.20;5.22;;;8.50;99.90;;;;;;4926453;29;20535;-70
2024/02/12 15:29:37;;;;;;;9.10;6.55;;;8.40;99.90;;;;;;4924377;29;20215;-70
2024/02/12 15:32:06;;;;;;;10.93;6.22;;;8.40;99.90;;;;;;4925899;29;20356;-71
2024/02/12 15:34:34;;;;;;;18.33;9.80;;;8.40;99.90;;;;;;4925941;29;20214;-69
2024/02/12 15:37:02;;;;;;;23.40;9.75;;;8.40;99.90;;;;;;4927868;29;20221;-70
2024/02/12 15:39:29;;;;;;;26.48;9.98;;;8.30;99.90;;;;;;4928003;29;20242;-71
2024/02/12 15:41:56;;;;;;;10.90;6.82;;;8.30;99.90;;;;;;4924752;29;20253;-71
2024/02/12 15:44:24;;;;;;;25.20;6.63;;;8.30;99.90;;;;;;4925796;29;20313;-70
2024/02/12 15:46:51;;;;;;;7.95;6.45;;;8.20;99.90;;;;;;4927382;29;20235;-69
2024/02/12 15:49:18;;;;;;;9.18;5.40;;;8.20;99.90;;;;;;4927144;29;20213;-71
2024/02/12 15:51:46;;;;;;;6.32;4.78;;;8.20;99.90;;;;;;4925159;29;20326;-69
2024/02/12 15:54:13;;;;;;;11.40;5.78;;;8.20;99.90;;;;;;4926285;29;20209;-70
2024/02/12 15:56:40;;;;;;;6.28;4.07;;;8.20;99.90;;;;;;4924100;29;20218;-70
2024/02/12 15:59:07;;;;;;;9.25;5.55;;;8.10;99.90;;;;;;4925979;29;20215;-71
2024/02/12 16:01:36;;;;;;;12.82;7.13;;;8.10;99.90;;;;;;4929752;29;20238;-71
2024/02/12 16:04:03;;;;;;;6.00;5.05;;;8.10;99.90;;;;;;4928726;29;20248;-70
2024/02/12 16:06:30;;;;;;;7.50;5.78;;;8.10;99.90;;;;;;4928420;29;20221;-71
2024/02/12 16:08:58;;;;;;;10.55;7.60;;;8.10;99.90;;;;;;4927487;29;20225;-70
2024/02/12 16:11:25;;;;;;;6.47;4.68;;;8.00;99.90;;;;;;4929780;29;20238;-70
2024/02/12 16:13:53;;;;;;;7.57;5.32;;;8.00;99.90;;;;;;4923694;29;20211;-69
2024/02/12 16:16:23;;;;;;;7.45;5.95;;;7.90;99.90;;;;;;4923599;29;20273;-70
2024/02/12 16:18:52;;;;;;;8.00;5.57;;;7.80;99.90;;;;;;4927859;29;20214;-70
2024/02/12 16:21:19;;;;;;;8.27;5.18;;;7.80;99.90;;;;;;4921068;29;20240;-70
2024/02/12 16:23:46;;;;;;;7.18;5.60;;;7.80;99.90;;;;;;4930507;29;20587;-70
2024/02/12 16:26:16;;;;;;;7.55;5.22;;;7.70;99.90;;;;;;4923797;29;20228;-73
2024/02/12 16:28:44;;;;;;;9.45;4.72;;;7.70;99.90;;;;;;4926304;29;20229;-69
2024/02/12 16:31:11;;;;;;;5.97;5.25;;;7.70;99.90;;;;;;4928004;29;20242;-70
2024/02/12 16:33:38;;;;;;;5.93;4.25;;;7.60;99.90;;;;;;4924431;29;20277;-70
2024/02/12 16:36:07;;;;;;;5.15;4.03;;;7.60;99.90;;;;;;4928374;29;20206;-70
2024/02/12 16:38:34;;;;;;;6.78;4.20;;;7.50;99.90;;;;;;4922648;29;20747;-70
2024/02/12 16:41:00;;;;;;;5.88;5.28;;;7.40;99.90;;;;;;4924095;29;20609;-70
2024/02/12 16:43:28;;;;;;;5.45;3.85;;;7.40;99.90;;;;;;4923011;29;20217;-71
2024/02/12 16:45:55;;;;;;;6.10;4.70;;;7.30;99.90;;;;;;4920282;29;20213;-70
2024/02/12 16:48:22;;;;;;;6.60;5.38;;;7.20;99.90;;;;;;4925577;29;20209;-71
2024/02/12 16:50:50;;;;;;;7.25;4.80;;;7.20;99.90;;;;;;4924483;29;20312;-69
2024/02/12 16:53:17;;;;;;;6.60;4.28;;;7.10;99.90;;;;;;4920968;29;20609;-69
2024/02/12 16:55:44;;;;;;;7.95;4.88;;;7.10;99.90;;;;;;4928955;29;20291;-69
2024/02/12 16:58:10;;;;;;;5.43;4.88;;;7.00;99.90;;;;;;4925067;29;20221;-69
2024/02/12 17:00:39;;;;;;;13.00;6.90;;;7.00;99.90;;;;;;4925427;29;20235;-70
2024/02/12 17:03:05;;;;;;;7.53;5.18;;;6.90;99.90;;;;;;4923222;29;20216;-70
2024/02/12 17:05:32;;;;;;;7.68;5.25;;;6.80;99.90;;;;;;4922945;29;20209;-69
2024/02/12 17:07:59;;;;;;;10.77;4.75;;;6.80;99.90;;;;;;4921678;29;20587;-71
2024/02/12 17:10:27;;;;;;;5.65;4.72;;;6.70;99.90;;;;;;4929386;29;20620;-70
2024/02/12 17:12:55;;;;;;;6.13;5.53;;;6.70;99.90;;;;;;4920475;29;20213;-69
2024/02/12 17:15:23;;;;;;;9.90;6.05;;;6.60;99.90;;;;;;4923634;29;20354;-70
2024/02/12 17:17:52;;;;;;;16.17;6.50;;;6.60;99.90;;;;;;4921629;29;20265;-70
2024/02/12 17:20:20;;;;;;;12.20;5.68;;;6.50;99.90;;;;;;4920882;29;20246;-70
2024/02/12 17:22:47;;;;;;;6.03;5.10;;;6.50;99.90;;;;;;4920955;29;20213;-69
2024/02/12 17:25:16;;;;;;;8.13;3.85;;;6.40;99.90;;;;;;4921387;29;20265;-70
2024/02/12 17:27:42;;;;;;;7.38;4.82;;;6.40;99.90;;;;;;4920452;29;20220;-69
2024/02/12 17:30:10;;;;;;;6.45;4.70;;;6.40;99.90;;;;;;4922894;29;20211;-70
2024/02/12 17:32:37;;;;;;;4.75;4.35;;;6.30;99.90;;;;;;4922714;29;20286;-69
2024/02/12 17:35:10;;;;;;;8.70;6.05;;;6.30;99.90;;;;;;4923367;29;20738;-69
2024/02/12 17:37:38;;;;;;;8.52;7.20;;;6.20;99.90;;;;;;4921998;29;20211;-69
2024/02/12 17:40:06;;;;;;;9.43;7.68;;;6.20;99.90;;;;;;4928774;29;20310;-70
2024/02/12 17:42:34;;;;;;;8.98;7.45;;;6.20;99.90;;;;;;4923466;29;20223;-70
2024/02/12 17:45:01;;;;;;;9.52;6.95;;;6.10;99.90;;;;;;4921591;29;20219;-70
2024/02/12 17:47:28;;;;;;;10.45;7.90;;;6.10;99.90;;;;;;4922342;29;20216;-69
2024/02/12 17:49:55;;;;;;;10.50;7.55;;;6.00;99.90;;;;;;4922514;29;20623;-69
2024/02/12 17:52:23;;;;;;;13.95;9.25;;;6.00;99.90;;;;;;4926494;29;20234;-69
2024/02/12 17:54:50;;;;;;;21.55;10.85;;;6.00;99.90;;;;;;4922130;29;20235;-68